sensor_id;sensor_type;location;lat;lon;timestamp;temperature;humidity
59234;DHT22;60776;51.702;7.462;2023-07-30T00:01:58;19.10;99.90
59234;DHT22;60776;51.702;7.462;2023-07-30T00:04:25;19.10;99.90
59234;DHT22;60776;51.702;7.462;2023-07-30T00:06:50;19.10;99.90
59234;DHT22;60776;51.702;7.462;2023-07-30T00:09:16;19.00;99.90
59234;DHT22;60776;51.702;7.462;2023-07-30T00:11:42;19.00;99.90
59234;DHT22;60776;51.702;7.462;2023-07-30T00:14:09;19.00;99.90
59234;DHT22;60776;51.702;7.462;2023-07-30T00:16:35;18.90;99.90
59234;DHT22;60776;51.702;7.462;2023-07-30T00:19:01;18.90;99.90
59234;DHT22;60776;51.702;7.462;2023-07-30T00:21:26;18.90;99.90
59234;DHT22;60776;51.702;7.462;2023-07-30T00:23:52;18.90;99.90
59234;DHT22;60776;51.702;7.462;2023-07-30T00:26:17;18.80;99.90
59234;DHT22;60776;51.702;7.462;2023-07-30T00:28:43;18.80;99.90
59234;DHT22;60776;51.702;7.462;2023-07-30T00:31:09;18.80;99.90
59234;DHT22;60776;51.702;7.462;2023-07-30T00:33:34;18.70;99.90
59234;DHT22;60776;51.702;7.462;2023-07-30T00:36:00;18.70;99.90
59234;DHT22;60776;51.702;7.462;2023-07-30T00:38:26;18.60;99.90
59234;DHT22;60776;51.702;7.462;2023-07-30T00:40:51;18.60;99.90
59234;DHT22;60776;51.702;7.462;2023-07-30T00:43:17;18.60;99.90
59234;DHT22;60776;51.702;7.462;2023-07-30T00:45:44;18.50;99.90
59234;DHT22;60776;51.702;7.462;2023-07-30T00:48:13;18.60;99.90
59234;DHT22;60776;51.702;7.462;2023-07-30T00:50:42;18.60;99.90
59234;DHT22;60776;51.702;7.462;2023-07-30T00:53:09;18.50;99.90
59234;DHT22;60776;51.702;7.462;2023-07-30T00:55:36;18.50;99.90
59234;DHT22;60776;51.702;7.462;2023-07-30T00:58:02;18.50;99.90
59234;DHT22;60776;51.702;7.462;2023-07-30T01:00:29;18.50;99.90
59234;DHT22;60776;51.702;7.462;2023-07-30T01:02:55;18.40;99.90
59234;DHT22;60776;51.702;7.462;2023-07-30T01:05:21;18.40;99.90
59234;DHT22;60776;51.702;7.462;2023-07-30T01:07:47;18.30;99.90
59234;DHT22;60776;51.702;7.462;2023-07-30T01:10:15;18.30;99.90
59234;DHT22;60776;51.702;7.462;2023-07-30T01:12:42;18.20;99.90
59234;DHT22;60776;51.702;7.462;2023-07-30T01:15:09;18.20;99.90
59234;DHT22;60776;51.702;7.462;2023-07-30T01:17:35;18.10;99.90
59234;DHT22;60776;51.702;7.462;2023-07-30T01:20:02;18.10;99.90
59234;DHT22;60776;51.702;7.462;2023-07-30T01:22:28;18.00;99.90
59234;DHT22;60776;51.702;7.462;2023-07-30T01:24:54;18.00;99.90
59234;DHT22;60776;51.702;7.462;2023-07-30T01:27:25;18.00;99.90
59234;DHT22;60776;51.702;7.462;2023-07-30T01:29:58;17.90;99.90
59234;DHT22;60776;51.702;7.462;2023-07-30T01:32:27;17.90;99.90
59234;DHT22;60776;51.702;7.462;2023-07-30T01:34:57;17.90;99.90
59234;DHT22;60776;51.702;7.462;2023-07-30T01:37:23;17.90;99.90
59234;DHT22;60776;51.702;7.462;2023-07-30T01:39:50;17.80;99.90
59234;DHT22;60776;51.702;7.462;2023-07-30T01:42:16;17.70;99.90
59234;DHT22;60776;51.702;7.462;2023-07-30T01:44:42;17.70;99.90
59234;DHT22;60776;51.702;7.462;2023-07-30T01:47:08;17.70;99.90
59234;DHT22;60776;51.702;7.462;2023-07-30T01:49:36;17.70;99.90
59234;DHT22;60776;51.702;7.462;2023-07-30T01:52:02;17.60;99.90
59234;DHT22;60776;51.702;7.462;2023-07-30T01:54:30;17.50;99.90
59234;DHT22;60776;51.702;7.462;2023-07-30T01:56:56;17.50;99.90
59234;DHT22;60776;51.702;7.462;2023-07-30T01:59:21;17.50;99.90
59234;DHT22;60776;51.702;7.462;2023-07-30T02:01:47;17.50;99.90
59234;DHT22;60776;51.702;7.462;2023-07-30T02:04:15;17.40;99.90
59234;DHT22;60776;51.702;7.462;2023-07-30T02:06:45;17.40;99.90
59234;DHT22;60776;51.702;7.462;2023-07-30T02:09:10;17.40;99.90
59234;DHT22;60776;51.702;7.462;2023-07-30T02:11:36;17.40;99.90
59234;DHT22;60776;51.702;7.462;2023-07-30T02:14:02;17.30;99.90
59234;DHT22;60776;51.702;7.462;2023-07-30T02:16:27;17.30;99.90
59234;DHT22;60776;51.702;7.462;2023-07-30T02:18:53;17.30;99.90
59234;DHT22;60776;51.702;7.462;2023-07-30T02:21:18;17.20;99.90
59234;DHT22;60776;51.702;7.462;2023-07-30T02:23:44;17.20;99.90
59234;DHT22;60776;51.702;7.462;2023-07-30T02:26:10;17.20;99.90
59234;DHT22;60776;51.702;7.462;2023-07-30T02:28:38;17.20;99.90
59234;DHT22;60776;51.702;7.462;2023-07-30T02:31:03;17.10;99.90
59234;DHT22;60776;51.702;7.462;2023-07-30T02:33:29;17.10;99.90
59234;DHT22;60776;51.702;7.462;2023-07-30T02:35:55;17.10;99.90
59234;DHT22;60776;51.702;7.462;2023-07-30T02:38:23;17.00;99.90
59234;DHT22;60776;51.702;7.462;2023-07-30T02:40:49;17.00;99.90
59234;DHT22;60776;51.702;7.462;2023-07-30T02:43:14;16.90;99.90
59234;DHT22;60776;51.702;7.462;2023-07-30T02:45:40;16.90;99.90
59234;DHT22;60776;51.702;7.462;2023-07-30T02:48:06;16.90;99.90
59234;DHT22;60776;51.702;7.462;2023-07-30T02:50:31;16.90;99.90
59234;DHT22;60776;51.702;7.462;2023-07-30T02:52:57;16.80;99.90
59234;DHT22;60776;51.702;7.462;2023-07-30T02:55:23;16.90;99.90
59234;DHT22;60776;51.702;7.462;2023-07-30T02:57:51;16.80;99.90
59234;DHT22;60776;51.702;7.462;2023-07-30T03:00:17;16.80;99.90
59234;DHT22;60776;51.702;7.462;2023-07-30T03:02:43;16.70;99.90
59234;DHT22;60776;51.702;7.462;2023-07-30T03:05:08;16.70;99.90
59234;DHT22;60776;51.702;7.462;2023-07-30T03:07:35;16.70;99.90
59234;DHT22;60776;51.702;7.462;2023-07-30T03:10:01;16.60;99.90
59234;DHT22;60776;51.702;7.462;2023-07-30T03:12:27;16.60;99.90
59234;DHT22;60776;51.702;7.462;2023-07-30T03:14:52;16.60;99.90
59234;DHT22;60776;51.702;7.462;2023-07-30T03:17:21;16.60;99.90
59234;DHT22;60776;51.702;7.462;2023-07-30T03:19:47;16.50;99.90
59234;DHT22;60776;51.702;7.462;2023-07-30T03:22:15;16.50;99.90
59234;DHT22;60776;51.702;7.462;2023-07-30T03:24:41;16.50;99.90
59234;DHT22;60776;51.702;7.462;2023-07-30T03:27:07;16.50;99.90
59234;DHT22;60776;51.702;7.462;2023-07-30T03:29:35;16.50;99.90
59234;DHT22;60776;51.702;7.462;2023-07-30T03:32:04;16.50;99.90
59234;DHT22;60776;51.702;7.462;2023-07-30T03:34:29;16.40;99.90
59234;DHT22;60776;51.702;7.462;2023-07-30T03:36:55;16.40;99.90
59234;DHT22;60776;51.702;7.462;2023-07-30T03:39:20;16.40;99.90
59234;DHT22;60776;51.702;7.462;2023-07-30T03:41:46;16.40;99.90
59234;DHT22;60776;51.702;7.462;2023-07-30T03:44:12;16.30;99.90
59234;DHT22;60776;51.702;7.462;2023-07-30T03:46:37;16.30;99.90
59234;DHT22;60776;51.702;7.462;2023-07-30T03:49:03;16.30;99.90
59234;DHT22;60776;51.702;7.462;2023-07-30T03:51:29;16.30;99.90
59234;DHT22;60776;51.702;7.462;2023-07-30T03:53:54;16.30;99.90
59234;DHT22;60776;51.702;7.462;2023-07-30T03:56:20;16.30;99.90
59234;DHT22;60776;51.702;7.462;2023-07-30T03:58:45;16.30;99.90
59234;DHT22;60776;51.702;7.462;2023-07-30T04:01:11;16.20;99.90
59234;DHT22;60776;51.702;7.462;2023-07-30T04:03:37;16.30;99.90
59234;DHT22;60776;51.702;7.462;2023-07-30T04:06:02;16.30;99.90
59234;DHT22;60776;51.702;7.462;2023-07-30T04:08:28;16.30;99.90
59234;DHT22;60776;51.702;7.462;2023-07-30T04:10:54;16.30;99.90
59234;DHT22;60776;51.702;7.462;2023-07-30T04:13:19;16.50;99.90
59234;DHT22;60776;51.702;7.462;2023-07-30T04:15:47;16.60;99.90
59234;DHT22;60776;51.702;7.462;2023-07-30T04:18:13;16.80;99.90
59234;DHT22;60776;51.702;7.462;2023-07-30T04:20:41;17.10;99.90
59234;DHT22;60776;51.702;7.462;2023-07-30T04:23:06;17.20;99.90
59234;DHT22;60776;51.702;7.462;2023-07-30T04:25:32;17.40;99.90
59234;DHT22;60776;51.702;7.462;2023-07-30T04:27:57;17.70;99.90
59234;DHT22;60776;51.702;7.462;2023-07-30T04:30:23;18.00;99.90
59234;DHT22;60776;51.702;7.462;2023-07-30T04:32:51;18.50;99.90
59234;DHT22;60776;51.702;7.462;2023-07-30T04:35:19;18.80;99.90
59234;DHT22;60776;51.702;7.462;2023-07-30T04:37:47;19.20;99.90
59234;DHT22;60776;51.702;7.462;2023-07-30T04:40:13;19.40;99.90
59234;DHT22;60776;51.702;7.462;2023-07-30T04:42:39;19.40;99.90
59234;DHT22;60776;51.702;7.462;2023-07-30T04:45:05;19.40;99.90
59234;DHT22;60776;51.702;7.462;2023-07-30T04:47:30;19.30;99.90
59234;DHT22;60776;51.702;7.462;2023-07-30T04:49:56;19.10;99.90
59234;DHT22;60776;51.702;7.462;2023-07-30T04:52:22;19.40;99.90
59234;DHT22;60776;51.702;7.462;2023-07-30T04:54:47;19.80;99.90
59234;DHT22;60776;51.702;7.462;2023-07-30T04:57:13;20.10;99.90
59234;DHT22;60776;51.702;7.462;2023-07-30T04:59:38;19.90;99.90
59234;DHT22;60776;51.702;7.462;2023-07-30T05:02:04;19.70;99.90
59234;DHT22;60776;51.702;7.462;2023-07-30T05:04:30;19.50;99.90
59234;DHT22;60776;51.702;7.462;2023-07-30T05:06:55;19.40;99.90
59234;DHT22;60776;51.702;7.462;2023-07-30T05:09:21;19.20;99.90
59234;DHT22;60776;51.702;7.462;2023-07-30T05:11:47;19.20;99.90
59234;DHT22;60776;51.702;7.462;2023-07-30T05:14:12;19.10;99.90
59234;DHT22;60776;51.702;7.462;2023-07-30T05:16:38;19.00;99.90
59234;DHT22;60776;51.702;7.462;2023-07-30T05:19:03;18.90;99.90
59234;DHT22;60776;51.702;7.462;2023-07-30T05:21:29;18.90;99.90
59234;DHT22;60776;51.702;7.462;2023-07-30T05:23:55;18.80;99.90
59234;DHT22;60776;51.702;7.462;2023-07-30T05:26:20;18.70;99.90
59234;DHT22;60776;51.702;7.462;2023-07-30T05:28:46;18.70;99.90
59234;DHT22;60776;51.702;7.462;2023-07-30T05:31:12;18.70;99.90
59234;DHT22;60776;51.702;7.462;2023-07-30T05:33:37;18.80;99.90
59234;DHT22;60776;51.702;7.462;2023-07-30T05:36:03;18.80;99.90
59234;DHT22;60776;51.702;7.462;2023-07-30T05:38:28;18.80;99.90
59234;DHT22;60776;51.702;7.462;2023-07-30T05:40:54;18.90;99.90
59234;DHT22;60776;51.702;7.462;2023-07-30T05:43:20;18.90;99.90
59234;DHT22;60776;51.702;7.462;2023-07-30T05:45:45;19.00;99.90
59234;DHT22;60776;51.702;7.462;2023-07-30T05:48:13;18.90;99.90
59234;DHT22;60776;51.702;7.462;2023-07-30T05:50:39;18.90;99.90
59234;DHT22;60776;51.702;7.462;2023-07-30T05:53:05;19.00;99.90
59234;DHT22;60776;51.702;7.462;2023-07-30T05:55:30;18.90;99.90
59234;DHT22;60776;51.702;7.462;2023-07-30T05:57:56;18.90;99.90
59234;DHT22;60776;51.702;7.462;2023-07-30T06:00:24;18.80;99.90
59234;DHT22;60776;51.702;7.462;2023-07-30T06:02:49;18.80;99.90
59234;DHT22;60776;51.702;7.462;2023-07-30T06:05:15;18.80;99.90
59234;DHT22;60776;51.702;7.462;2023-07-30T06:07:41;18.80;99.90
59234;DHT22;60776;51.702;7.462;2023-07-30T06:10:07;18.90;99.90
59234;DHT22;60776;51.702;7.462;2023-07-30T06:12:32;18.90;99.90
59234;DHT22;60776;51.702;7.462;2023-07-30T06:14:58;18.90;99.90
59234;DHT22;60776;51.702;7.462;2023-07-30T06:17:24;19.00;99.90
59234;DHT22;60776;51.702;7.462;2023-07-30T06:19:52;19.00;99.90
59234;DHT22;60776;51.702;7.462;2023-07-30T06:22:17;19.10;99.90
59234;DHT22;60776;51.702;7.462;2023-07-30T06:24:50;19.20;99.90
59234;DHT22;60776;51.702;7.462;2023-07-30T06:27:16;19.20;99.90
59234;DHT22;60776;51.702;7.462;2023-07-30T06:29:42;19.20;99.90
59234;DHT22;60776;51.702;7.462;2023-07-30T06:32:07;19.20;99.90
59234;DHT22;60776;51.702;7.462;2023-07-30T06:34:33;19.30;99.90
59234;DHT22;60776;51.702;7.462;2023-07-30T06:36:59;19.20;99.90
59234;DHT22;60776;51.702;7.462;2023-07-30T06:39:27;19.20;99.90
59234;DHT22;60776;51.702;7.462;2023-07-30T06:41:52;19.10;99.90
59234;DHT22;60776;51.702;7.462;2023-07-30T06:44:18;19.20;99.90
59234;DHT22;60776;51.702;7.462;2023-07-30T06:46:44;19.10;99.90
59234;DHT22;60776;51.702;7.462;2023-07-30T06:49:09;19.20;99.90
59234;DHT22;60776;51.702;7.462;2023-07-30T06:51:35;19.20;99.90
59234;DHT22;60776;51.702;7.462;2023-07-30T06:54:00;19.20;99.90
59234;DHT22;60776;51.702;7.462;2023-07-30T06:56:26;19.30;99.90
59234;DHT22;60776;51.702;7.462;2023-07-30T06:58:52;19.30;99.90
59234;DHT22;60776;51.702;7.462;2023-07-30T07:01:17;19.30;99.90
59234;DHT22;60776;51.702;7.462;2023-07-30T07:03:43;19.30;99.90
59234;DHT22;60776;51.702;7.462;2023-07-30T07:06:09;19.30;99.90
59234;DHT22;60776;51.702;7.462;2023-07-30T07:08:34;19.30;99.90
59234;DHT22;60776;51.702;7.462;2023-07-30T07:11:00;19.40;99.90
59234;DHT22;60776;51.702;7.462;2023-07-30T07:13:26;19.40;99.90
59234;DHT22;60776;51.702;7.462;2023-07-30T07:15:51;19.40;99.90
59234;DHT22;60776;51.702;7.462;2023-07-30T07:18:20;19.40;99.90
59234;DHT22;60776;51.702;7.462;2023-07-30T07:20:45;19.50;99.90
59234;DHT22;60776;51.702;7.462;2023-07-30T07:23:11;19.50;99.90
59234;DHT22;60776;51.702;7.462;2023-07-30T07:25:37;19.60;99.90
59234;DHT22;60776;51.702;7.462;2023-07-30T07:28:03;19.80;99.90
59234;DHT22;60776;51.702;7.462;2023-07-30T07:30:29;19.90;99.90
59234;DHT22;60776;51.702;7.462;2023-07-30T07:32:54;20.10;99.90
59234;DHT22;60776;51.702;7.462;2023-07-30T07:35:21;20.20;99.90
59234;DHT22;60776;51.702;7.462;2023-07-30T07:37:46;20.30;99.90
59234;DHT22;60776;51.702;7.462;2023-07-30T07:40:12;20.40;99.90
59234;DHT22;60776;51.702;7.462;2023-07-30T07:42:38;20.40;99.90
59234;DHT22;60776;51.702;7.462;2023-07-30T07:45:06;20.40;99.90
59234;DHT22;60776;51.702;7.462;2023-07-30T07:47:31;20.40;99.90
59234;DHT22;60776;51.702;7.462;2023-07-30T07:49:57;20.40;99.90
59234;DHT22;60776;51.702;7.462;2023-07-30T07:52:23;20.40;99.90
59234;DHT22;60776;51.702;7.462;2023-07-30T07:54:49;20.30;99.90
59234;DHT22;60776;51.702;7.462;2023-07-30T07:57:17;20.30;99.90
59234;DHT22;60776;51.702;7.462;2023-07-30T07:59:43;20.40;99.90
59234;DHT22;60776;51.702;7.462;2023-07-30T08:02:11;20.40;99.90
59234;DHT22;60776;51.702;7.462;2023-07-30T08:04:37;20.30;99.90
59234;DHT22;60776;51.702;7.462;2023-07-30T08:07:03;20.30;99.90
59234;DHT22;60776;51.702;7.462;2023-07-30T08:09:29;20.30;99.90
59234;DHT22;60776;51.702;7.462;2023-07-30T08:11:55;20.30;99.90
59234;DHT22;60776;51.702;7.462;2023-07-30T08:14:21;20.20;99.90
59234;DHT22;60776;51.702;7.462;2023-07-30T08:16:47;20.20;99.90
59234;DHT22;60776;51.702;7.462;2023-07-30T08:19:12;20.10;99.90
59234;DHT22;60776;51.702;7.462;2023-07-30T08:21:38;20.00;99.90
59234;DHT22;60776;51.702;7.462;2023-07-30T08:24:04;20.00;99.90
59234;DHT22;60776;51.702;7.462;2023-07-30T08:26:30;20.00;99.90
59234;DHT22;60776;51.702;7.462;2023-07-30T08:28:56;20.10;99.90
59234;DHT22;60776;51.702;7.462;2023-07-30T08:31:23;20.10;99.90
59234;DHT22;60776;51.702;7.462;2023-07-30T08:33:48;20.30;99.90
59234;DHT22;60776;51.702;7.462;2023-07-30T08:36:14;20.40;99.90
59234;DHT22;60776;51.702;7.462;2023-07-30T08:38:40;20.60;99.90
59234;DHT22;60776;51.702;7.462;2023-07-30T08:41:05;20.80;99.90
59234;DHT22;60776;51.702;7.462;2023-07-30T08:43:31;20.80;99.90
59234;DHT22;60776;51.702;7.462;2023-07-30T08:45:57;21.00;99.90
59234;DHT22;60776;51.702;7.462;2023-07-30T08:48:23;21.30;99.90
59234;DHT22;60776;51.702;7.462;2023-07-30T08:50:48;21.80;99.90
59234;DHT22;60776;51.702;7.462;2023-07-30T08:53:20;22.30;99.90
59234;DHT22;60776;51.702;7.462;2023-07-30T08:55:46;23.00;99.90
59234;DHT22;60776;51.702;7.462;2023-07-30T08:58:13;24.00;99.90
59234;DHT22;60776;51.702;7.462;2023-07-30T09:00:41;25.30;99.90
59234;DHT22;60776;51.702;7.462;2023-07-30T09:03:08;26.80;99.90
59234;DHT22;60776;51.702;7.462;2023-07-30T09:05:34;28.20;99.90
59234;DHT22;60776;51.702;7.462;2023-07-30T09:08:00;29.80;99.90
59234;DHT22;60776;51.702;7.462;2023-07-30T09:10:26;30.30;88.70
59234;DHT22;60776;51.702;7.462;2023-07-30T09:12:53;29.70;82.30
59234;DHT22;60776;51.702;7.462;2023-07-30T09:15:32;28.80;82.10
59234;DHT22;60776;51.702;7.462;2023-07-30T09:17:59;27.90;84.90
59234;DHT22;60776;51.702;7.462;2023-07-30T09:20:25;27.10;86.90
59234;DHT22;60776;51.702;7.462;2023-07-30T09:22:51;26.50;91.30
59234;DHT22;60776;51.702;7.462;2023-07-30T09:25:18;25.90;93.20
59234;DHT22;60776;51.702;7.462;2023-07-30T09:27:49;25.80;96.20
59234;DHT22;60776;51.702;7.462;2023-07-30T09:30:24;26.10;96.80
59234;DHT22;60776;51.702;7.462;2023-07-30T09:32:55;26.60;97.60
59234;DHT22;60776;51.702;7.462;2023-07-30T09:35:22;26.50;95.10
59234;DHT22;60776;51.702;7.462;2023-07-30T09:37:50;26.30;96.30
59234;DHT22;60776;51.702;7.462;2023-07-30T09:40:34;25.90;96.30
59234;DHT22;60776;51.702;7.462;2023-07-30T09:43:01;25.60;97.50
59234;DHT22;60776;51.702;7.462;2023-07-30T09:45:27;25.40;99.30
59234;DHT22;60776;51.702;7.462;2023-07-30T09:47:54;25.80;99.90
59234;DHT22;60776;51.702;7.462;2023-07-30T09:50:22;26.30;99.00
59234;DHT22;60776;51.702;7.462;2023-07-30T09:52:49;27.20;97.50
59234;DHT22;60776;51.702;7.462;2023-07-30T09:55:15;28.30;94.00
59234;DHT22;60776;51.702;7.462;2023-07-30T09:57:41;29.70;92.20
59234;DHT22;60776;51.702;7.462;2023-07-30T10:00:07;30.60;83.70
59234;DHT22;60776;51.702;7.462;2023-07-30T10:02:41;30.70;76.30
59234;DHT22;60776;51.702;7.462;2023-07-30T10:05:13;31.20;72.10
59234;DHT22;60776;51.702;7.462;2023-07-30T10:07:46;31.80;71.50
59234;DHT22;60776;51.702;7.462;2023-07-30T10:10:12;33.20;67.50
59234;DHT22;60776;51.702;7.462;2023-07-30T10:12:39;34.70;59.70
59234;DHT22;60776;51.702;7.462;2023-07-30T10:15:06;36.20;55.70
59234;DHT22;60776;51.702;7.462;2023-07-30T10:17:33;36.10;53.00
59234;DHT22;60776;51.702;7.462;2023-07-30T10:20:27;35.40;52.50
59234;DHT22;60776;51.702;7.462;2023-07-30T10:22:56;34.20;51.70
59234;DHT22;60776;51.702;7.462;2023-07-30T10:25:27;33.70;54.40
59234;DHT22;60776;51.702;7.462;2023-07-30T10:27:53;34.10;51.80
59234;DHT22;60776;51.702;7.462;2023-07-30T10:30:20;33.50;51.90
59234;DHT22;60776;51.702;7.462;2023-07-30T10:35:42;31.10;53.20
59234;DHT22;60776;51.702;7.462;2023-07-30T10:38:44;29.80;55.00
59234;DHT22;60776;51.702;7.462;2023-07-30T10:41:12;28.80;57.20
59234;DHT22;60776;51.702;7.462;2023-07-30T10:43:40;28.10;57.90
59234;DHT22;60776;51.702;7.462;2023-07-30T10:46:07;28.30;59.70
59234;DHT22;60776;51.702;7.462;2023-07-30T10:48:39;29.40;61.30
59234;DHT22;60776;51.702;7.462;2023-07-30T10:51:07;31.70;58.40
59234;DHT22;60776;51.702;7.462;2023-07-30T10:53:34;32.30;55.20
59234;DHT22;60776;51.702;7.462;2023-07-30T10:56:12;32.10;53.70
59234;DHT22;60776;51.702;7.462;2023-07-30T10:58:37;31.70;53.00
59234;DHT22;60776;51.702;7.462;2023-07-30T11:01:07;30.70;54.50
59234;DHT22;60776;51.702;7.462;2023-07-30T11:03:34;29.80;54.40
59234;DHT22;60776;51.702;7.462;2023-07-30T11:06:01;28.80;55.90
59234;DHT22;60776;51.702;7.462;2023-07-30T11:08:37;27.90;57.10
59234;DHT22;60776;51.702;7.462;2023-07-30T11:11:04;27.00;58.50
59234;DHT22;60776;51.702;7.462;2023-07-30T11:13:39;26.30;60.40
59234;DHT22;60776;51.702;7.462;2023-07-30T11:16:06;25.70;63.30
59234;DHT22;60776;51.702;7.462;2023-07-30T11:18:33;25.30;65.20
59234;DHT22;60776;51.702;7.462;2023-07-30T11:21:04;25.20;66.60
59234;DHT22;60776;51.702;7.462;2023-07-30T11:23:29;25.40;67.70
59234;DHT22;60776;51.702;7.462;2023-07-30T11:25:57;25.80;67.40
59234;DHT22;60776;51.702;7.462;2023-07-30T11:28:30;26.00;67.50
59234;DHT22;60776;51.702;7.462;2023-07-30T11:33:35;28.00;66.70
59234;DHT22;60776;51.702;7.462;2023-07-30T11:36:02;29.70;63.80
59234;DHT22;60776;51.702;7.462;2023-07-30T11:38:29;32.00;58.40
59234;DHT22;60776;51.702;7.462;2023-07-30T11:40:57;33.70;54.30
59234;DHT22;60776;51.702;7.462;2023-07-30T11:43:24;35.10;51.20
59234;DHT22;60776;51.702;7.462;2023-07-30T11:46:15;35.00;49.40
59234;DHT22;60776;51.702;7.462;2023-07-30T11:48:43;34.40;48.00
59234;DHT22;60776;51.702;7.462;2023-07-30T11:51:24;33.10;48.80
59234;DHT22;60776;51.702;7.462;2023-07-30T11:53:53;31.80;51.30
59234;DHT22;60776;51.702;7.462;2023-07-30T11:58:50;30.40;52.90
59234;DHT22;60776;51.702;7.462;2023-07-30T12:01:18;29.90;54.20
59234;DHT22;60776;51.702;7.462;2023-07-30T12:03:44;29.40;54.70
59234;DHT22;60776;51.702;7.462;2023-07-30T12:06:11;28.50;55.70
59234;DHT22;60776;51.702;7.462;2023-07-30T12:08:37;27.90;56.60
59234;DHT22;60776;51.702;7.462;2023-07-30T12:11:05;27.30;57.40
59234;DHT22;60776;51.702;7.462;2023-07-30T12:13:44;26.90;58.90
59234;DHT22;60776;51.702;7.462;2023-07-30T12:16:16;26.50;60.00
59234;DHT22;60776;51.702;7.462;2023-07-30T12:18:42;26.20;60.50
59234;DHT22;60776;51.702;7.462;2023-07-30T12:21:08;25.90;61.70
59234;DHT22;60776;51.702;7.462;2023-07-30T12:23:36;25.60;62.50
59234;DHT22;60776;51.702;7.462;2023-07-30T12:26:03;25.50;63.30
59234;DHT22;60776;51.702;7.462;2023-07-30T12:28:31;25.30;63.60
59234;DHT22;60776;51.702;7.462;2023-07-30T12:30:58;25.10;64.30
59234;DHT22;60776;51.702;7.462;2023-07-30T12:33:23;24.90;65.10
59234;DHT22;60776;51.702;7.462;2023-07-30T12:35:51;24.70;67.10
59234;DHT22;60776;51.702;7.462;2023-07-30T12:38:18;24.30;91.30
59234;DHT22;60776;51.702;7.462;2023-07-30T12:40:44;23.40;98.50
59234;DHT22;60776;51.702;7.462;2023-07-30T12:43:09;22.70;99.90
59234;DHT22;60776;51.702;7.462;2023-07-30T12:45:37;22.30;99.90
59234;DHT22;60776;51.702;7.462;2023-07-30T12:48:04;22.00;99.90
59234;DHT22;60776;51.702;7.462;2023-07-30T12:50:30;22.00;99.90
59234;DHT22;60776;51.702;7.462;2023-07-30T12:52:55;22.10;99.90
59234;DHT22;60776;51.702;7.462;2023-07-30T12:55:21;22.00;99.90
59234;DHT22;60776;51.702;7.462;2023-07-30T12:57:49;21.90;99.90
59234;DHT22;60776;51.702;7.462;2023-07-30T13:00:19;21.80;99.90
59234;DHT22;60776;51.702;7.462;2023-07-30T13:02:45;22.20;99.90
59234;DHT22;60776;51.702;7.462;2023-07-30T13:05:10;23.10;99.90
59234;DHT22;60776;51.702;7.462;2023-07-30T13:07:37;23.90;99.90
59234;DHT22;60776;51.702;7.462;2023-07-30T13:10:07;24.80;99.90
59234;DHT22;60776;51.702;7.462;2023-07-30T13:12:33;25.30;99.90
59234;DHT22;60776;51.702;7.462;2023-07-30T13:14:59;25.60;99.90
59234;DHT22;60776;51.702;7.462;2023-07-30T13:17:25;26.10;99.90
59234;DHT22;60776;51.702;7.462;2023-07-30T13:19:51;26.30;99.90
59234;DHT22;60776;51.702;7.462;2023-07-30T13:22:16;26.50;99.90
59234;DHT22;60776;51.702;7.462;2023-07-30T13:24:42;26.60;99.90
59234;DHT22;60776;51.702;7.462;2023-07-30T13:27:08;26.70;99.90
59234;DHT22;60776;51.702;7.462;2023-07-30T13:29:33;26.80;99.90
59234;DHT22;60776;51.702;7.462;2023-07-30T13:31:59;26.70;99.70
59234;DHT22;60776;51.702;7.462;2023-07-30T13:34:25;26.40;97.90
59234;DHT22;60776;51.702;7.462;2023-07-30T13:36:50;26.00;99.10
59234;DHT22;60776;51.702;7.462;2023-07-30T13:39:19;25.80;99.40
59234;DHT22;60776;51.702;7.462;2023-07-30T13:41:45;25.40;99.90
59234;DHT22;60776;51.702;7.462;2023-07-30T13:44:10;25.00;99.90
59234;DHT22;60776;51.702;7.462;2023-07-30T13:46:37;24.50;99.90
59234;DHT22;60776;51.702;7.462;2023-07-30T13:49:03;23.90;99.90
59234;DHT22;60776;51.702;7.462;2023-07-30T13:51:31;23.50;99.90
59234;DHT22;60776;51.702;7.462;2023-07-30T13:53:58;23.40;99.90
59234;DHT22;60776;51.702;7.462;2023-07-30T13:56:28;23.10;99.90
59234;DHT22;60776;51.702;7.462;2023-07-30T13:58:54;22.90;99.90
59234;DHT22;60776;51.702;7.462;2023-07-30T14:01:22;22.90;99.90
59234;DHT22;60776;51.702;7.462;2023-07-30T14:03:48;23.10;99.90
59234;DHT22;60776;51.702;7.462;2023-07-30T14:06:13;23.40;99.90
59234;DHT22;60776;51.702;7.462;2023-07-30T14:08:39;23.80;99.90
59234;DHT22;60776;51.702;7.462;2023-07-30T14:11:07;24.20;99.90
59234;DHT22;60776;51.702;7.462;2023-07-30T14:13:33;24.50;99.90
59234;DHT22;60776;51.702;7.462;2023-07-30T14:15:58;24.80;99.90
59234;DHT22;60776;51.702;7.462;2023-07-30T14:18:24;25.10;99.90
59234;DHT22;60776;51.702;7.462;2023-07-30T14:20:51;25.20;99.90
59234;DHT22;60776;51.702;7.462;2023-07-30T14:23:16;25.10;99.90
59234;DHT22;60776;51.702;7.462;2023-07-30T14:25:42;25.20;99.90
59234;DHT22;60776;51.702;7.462;2023-07-30T14:28:08;25.00;99.90
59234;DHT22;60776;51.702;7.462;2023-07-30T14:30:34;24.70;99.90
59234;DHT22;60776;51.702;7.462;2023-07-30T14:33:04;24.60;99.90
59234;DHT22;60776;51.702;7.462;2023-07-30T14:35:30;24.60;99.90
59234;DHT22;60776;51.702;7.462;2023-07-30T14:37:55;24.60;99.90
59234;DHT22;60776;51.702;7.462;2023-07-30T14:40:21;24.60;99.90
59234;DHT22;60776;51.702;7.462;2023-07-30T14:42:47;24.60;99.90
59234;DHT22;60776;51.702;7.462;2023-07-30T14:45:13;24.70;99.20
59234;DHT22;60776;51.702;7.462;2023-07-30T14:47:38;24.80;99.90
59234;DHT22;60776;51.702;7.462;2023-07-30T14:50:05;24.90;99.90
59234;DHT22;60776;51.702;7.462;2023-07-30T14:52:32;25.10;99.90
59234;DHT22;60776;51.702;7.462;2023-07-30T14:54:57;25.10;98.60
59234;DHT22;60776;51.702;7.462;2023-07-30T14:57:23;25.30;97.80
59234;DHT22;60776;51.702;7.462;2023-07-30T14:59:49;25.30;97.60
59234;DHT22;60776;51.702;7.462;2023-07-30T15:02:15;25.30;97.10
59234;DHT22;60776;51.702;7.462;2023-07-30T15:04:40;25.20;96.40
59234;DHT22;60776;51.702;7.462;2023-07-30T15:07:06;25.10;96.80
59234;DHT22;60776;51.702;7.462;2023-07-30T15:09:34;25.00;97.30
59234;DHT22;60776;51.702;7.462;2023-07-30T15:12:01;25.10;97.70
59234;DHT22;60776;51.702;7.462;2023-07-30T15:14:27;25.20;97.00
59234;DHT22;60776;51.702;7.462;2023-07-30T15:16:53;25.30;96.10
59234;DHT22;60776;51.702;7.462;2023-07-30T15:19:19;25.40;94.00
59234;DHT22;60776;51.702;7.462;2023-07-30T15:21:45;25.40;94.10
59234;DHT22;60776;51.702;7.462;2023-07-30T15:24:10;25.40;93.50
59234;DHT22;60776;51.702;7.462;2023-07-30T15:26:36;25.20;92.90
59234;DHT22;60776;51.702;7.462;2023-07-30T15:29:02;24.90;93.60
59234;DHT22;60776;51.702;7.462;2023-07-30T15:31:28;24.60;94.10
59234;DHT22;60776;51.702;7.462;2023-07-30T15:33:54;24.50;94.90
59234;DHT22;60776;51.702;7.462;2023-07-30T15:36:21;24.40;95.10